sensor_id;sensor_type;location;lat;lon;timestamp;temperature;humidity
51655;DHT22;37732;53.106;7.030;2023-02-28T00:01:23;3.70;99.90
51655;DHT22;37732;53.106;7.030;2023-02-28T00:03:49;3.80;99.90
51655;DHT22;37732;53.106;7.030;2023-02-28T00:06:15;3.70;99.90
51655;DHT22;37732;53.106;7.030;2023-02-28T00:08:42;3.70;99.90
51655;DHT22;37732;53.106;7.030;2023-02-28T00:11:11;3.70;99.90
51655;DHT22;37732;53.106;7.030;2023-02-28T00:13:41;3.80;99.90
51655;DHT22;37732;53.106;7.030;2023-02-28T00:16:11;3.70;99.90
51655;DHT22;37732;53.106;7.030;2023-02-28T00:18:40;3.80;99.90
51655;DHT22;37732;53.106;7.030;2023-02-28T00:21:08;3.80;99.90
51655;DHT22;37732;53.106;7.030;2023-02-28T00:23:34;3.80;99.90
51655;DHT22;37732;53.106;7.030;2023-02-28T00:26:01;3.80;99.90
51655;DHT22;37732;53.106;7.030;2023-02-28T00:28:27;3.80;99.90
51655;DHT22;37732;53.106;7.030;2023-02-28T00:30:53;3.80;99.90
51655;DHT22;37732;53.106;7.030;2023-02-28T00:33:19;3.80;99.90
51655;DHT22;37732;53.106;7.030;2023-02-28T00:35:46;3.80;99.90
51655;DHT22;37732;53.106;7.030;2023-02-28T00:38:13;3.80;99.90
51655;DHT22;37732;53.106;7.030;2023-02-28T00:40:39;3.80;99.90
51655;DHT22;37732;53.106;7.030;2023-02-28T00:43:06;3.80;99.90
51655;DHT22;37732;53.106;7.030;2023-02-28T00:45:32;3.80;99.90
51655;DHT22;37732;53.106;7.030;2023-02-28T00:47:57;3.80;99.90
51655;DHT22;37732;53.106;7.030;2023-02-28T00:50:24;3.80;99.90
51655;DHT22;37732;53.106;7.030;2023-02-28T00:55:27;3.90;99.90
51655;DHT22;37732;53.106;7.030;2023-02-28T00:57:53;3.80;99.90
51655;DHT22;37732;53.106;7.030;2023-02-28T01:00:19;3.90;99.90
51655;DHT22;37732;53.106;7.030;2023-02-28T01:02:46;3.90;99.90
51655;DHT22;37732;53.106;7.030;2023-02-28T01:05:13;3.80;99.90
51655;DHT22;37732;53.106;7.030;2023-02-28T01:07:39;3.80;99.90
51655;DHT22;37732;53.106;7.030;2023-02-28T01:10:05;3.80;99.90
51655;DHT22;37732;53.106;7.030;2023-02-28T01:12:31;3.80;99.90
51655;DHT22;37732;53.106;7.030;2023-02-28T01:14:57;3.80;99.90
51655;DHT22;37732;53.106;7.030;2023-02-28T01:17:24;3.80;99.90
51655;DHT22;37732;53.106;7.030;2023-02-28T01:19:54;3.90;99.90
51655;DHT22;37732;53.106;7.030;2023-02-28T01:22:21;3.90;99.90
51655;DHT22;37732;53.106;7.030;2023-02-28T01:24:47;3.90;99.90
51655;DHT22;37732;53.106;7.030;2023-02-28T01:27:14;3.90;99.90
51655;DHT22;37732;53.106;7.030;2023-02-28T01:29:39;3.90;99.90
51655;DHT22;37732;53.106;7.030;2023-02-28T01:32:05;3.90;99.90
51655;DHT22;37732;53.106;7.030;2023-02-28T01:34:31;3.90;99.90
51655;DHT22;37732;53.106;7.030;2023-02-28T01:36:58;3.90;99.90
51655;DHT22;37732;53.106;7.030;2023-02-28T01:39:25;3.90;99.90
51655;DHT22;37732;53.106;7.030;2023-02-28T01:41:51;3.90;99.90
51655;DHT22;37732;53.106;7.030;2023-02-28T01:47:23;3.90;99.90
51655;DHT22;37732;53.106;7.030;2023-02-28T01:49:52;3.80;99.90
51655;DHT22;37732;53.106;7.030;2023-02-28T01:52:19;3.90;99.90
51655;DHT22;37732;53.106;7.030;2023-02-28T01:54:50;3.80;99.90
51655;DHT22;37732;53.106;7.030;2023-02-28T01:57:21;3.90;99.90
51655;DHT22;37732;53.106;7.030;2023-02-28T01:59:55;3.90;99.90
51655;DHT22;37732;53.106;7.030;2023-02-28T02:02:25;3.90;99.90
51655;DHT22;37732;53.106;7.030;2023-02-28T02:05:06;3.90;99.90
51655;DHT22;37732;53.106;7.030;2023-02-28T02:07:39;3.90;99.90
51655;DHT22;37732;53.106;7.030;2023-02-28T02:10:11;3.90;99.90
51655;DHT22;37732;53.106;7.030;2023-02-28T02:13:00;3.90;99.90
51655;DHT22;37732;53.106;7.030;2023-02-28T02:15:30;3.90;99.90
51655;DHT22;37732;53.106;7.030;2023-02-28T02:18:04;3.90;99.90
51655;DHT22;37732;53.106;7.030;2023-02-28T02:35:28;3.70;99.90
51655;DHT22;37732;53.106;7.030;2023-02-28T02:40:57;3.70;99.90
51655;DHT22;37732;53.106;7.030;2023-02-28T02:43:38;3.70;99.90
51655;DHT22;37732;53.106;7.030;2023-02-28T02:46:20;3.70;99.90
51655;DHT22;37732;53.106;7.030;2023-02-28T02:48:47;3.70;99.90
51655;DHT22;37732;53.106;7.030;2023-02-28T02:51:18;3.70;99.90
51655;DHT22;37732;53.106;7.030;2023-02-28T02:53:53;3.70;99.90
51655;DHT22;37732;53.106;7.030;2023-02-28T02:56:25;3.70;99.90
51655;DHT22;37732;53.106;7.030;2023-02-28T02:58:53;3.80;99.90
51655;DHT22;37732;53.106;7.030;2023-02-28T03:01:24;3.70;99.90
51655;DHT22;37732;53.106;7.030;2023-02-28T03:04:17;3.80;99.90
51655;DHT22;37732;53.106;7.030;2023-02-28T03:06:43;3.80;99.90
51655;DHT22;37732;53.106;7.030;2023-02-28T03:09:08;3.70;99.90
51655;DHT22;37732;53.106;7.030;2023-02-28T03:11:35;3.70;99.90
51655;DHT22;37732;53.106;7.030;2023-02-28T03:14:10;3.70;99.90
51655;DHT22;37732;53.106;7.030;2023-02-28T03:25:29;3.70;99.90
51655;DHT22;37732;53.106;7.030;2023-02-28T03:28:08;3.70;99.90
51655;DHT22;37732;53.106;7.030;2023-02-28T03:30:49;3.70;99.90
51655;DHT22;37732;53.106;7.030;2023-02-28T03:33:44;3.70;99.90
51655;DHT22;37732;53.106;7.030;2023-02-28T03:36:15;3.70;99.90
51655;DHT22;37732;53.106;7.030;2023-02-28T03:39:06;3.70;99.90
51655;DHT22;37732;53.106;7.030;2023-02-28T03:41:47;3.70;99.90
51655;DHT22;37732;53.106;7.030;2023-02-28T03:44:25;3.60;99.90
51655;DHT22;37732;53.106;7.030;2023-02-28T03:47:13;3.70;99.90
51655;DHT22;37732;53.106;7.030;2023-02-28T03:49:45;3.60;99.90
51655;DHT22;37732;53.106;7.030;2023-02-28T03:52:14;3.60;99.90
51655;DHT22;37732;53.106;7.030;2023-02-28T03:54:45;3.60;99.90
51655;DHT22;37732;53.106;7.030;2023-02-28T03:57:22;3.70;99.90
51655;DHT22;37732;53.106;7.030;2023-02-28T03:59:56;3.60;99.90
51655;DHT22;37732;53.106;7.030;2023-02-28T04:02:25;3.60;99.90
51655;DHT22;37732;53.106;7.030;2023-02-28T04:04:51;3.60;99.90
51655;DHT22;37732;53.106;7.030;2023-02-28T04:07:17;3.60;99.90
51655;DHT22;37732;53.106;7.030;2023-02-28T04:09:43;3.70;99.90
51655;DHT22;37732;53.106;7.030;2023-02-28T04:12:09;3.70;99.90
51655;DHT22;37732;53.106;7.030;2023-02-28T04:14:36;3.70;99.90
51655;DHT22;37732;53.106;7.030;2023-02-28T04:17:02;3.70;99.90
51655;DHT22;37732;53.106;7.030;2023-02-28T04:19:28;3.60;99.90
51655;DHT22;37732;53.106;7.030;2023-02-28T04:21:54;3.70;99.90
51655;DHT22;37732;53.106;7.030;2023-02-28T04:24:25;3.70;99.90
51655;DHT22;37732;53.106;7.030;2023-02-28T04:26:53;3.70;99.90
51655;DHT22;37732;53.106;7.030;2023-02-28T04:29:23;3.70;99.90
51655;DHT22;37732;53.106;7.030;2023-02-28T04:31:50;3.70;99.90
51655;DHT22;37732;53.106;7.030;2023-02-28T04:34:16;3.60;99.90
51655;DHT22;37732;53.106;7.030;2023-02-28T04:36:45;3.60;99.90
51655;DHT22;37732;53.106;7.030;2023-02-28T04:39:12;3.60;99.90
51655;DHT22;37732;53.106;7.030;2023-02-28T04:41:42;3.60;99.90
51655;DHT22;37732;53.106;7.030;2023-02-28T04:44:08;3.60;99.90
51655;DHT22;37732;53.106;7.030;2023-02-28T04:46:33;3.60;99.90
51655;DHT22;37732;53.106;7.030;2023-02-28T04:48:59;3.60;99.90
51655;DHT22;37732;53.106;7.030;2023-02-28T04:51:26;3.60;99.90
51655;DHT22;37732;53.106;7.030;2023-02-28T04:53:52;3.60;99.90
51655;DHT22;37732;53.106;7.030;2023-02-28T04:56:18;3.50;99.90
51655;DHT22;37732;53.106;7.030;2023-02-28T04:58:44;3.60;99.90
51655;DHT22;37732;53.106;7.030;2023-02-28T05:03:50;3.60;99.90
51655;DHT22;37732;53.106;7.030;2023-02-28T05:06:18;3.50;99.90
51655;DHT22;37732;53.106;7.030;2023-02-28T05:08:46;3.50;99.90
51655;DHT22;37732;53.106;7.030;2023-02-28T05:13:47;3.60;99.90
51655;DHT22;37732;53.106;7.030;2023-02-28T05:16:14;3.50;99.90
51655;DHT22;37732;53.106;7.030;2023-02-28T05:18:42;3.50;99.90
51655;DHT22;37732;53.106;7.030;2023-02-28T05:21:28;3.50;99.90
51655;DHT22;37732;53.106;7.030;2023-02-28T05:23:55;3.60;99.90
51655;DHT22;37732;53.106;7.030;2023-02-28T05:26:22;3.50;99.90
51655;DHT22;37732;53.106;7.030;2023-02-28T05:28:48;3.50;99.90
51655;DHT22;37732;53.106;7.030;2023-02-28T05:31:14;3.50;99.90
51655;DHT22;37732;53.106;7.030;2023-02-28T05:33:41;3.50;99.90
51655;DHT22;37732;53.106;7.030;2023-02-28T05:36:08;3.50;99.90
51655;DHT22;37732;53.106;7.030;2023-02-28T05:38:34;3.50;99.90
51655;DHT22;37732;53.106;7.030;2023-02-28T05:41:00;3.50;99.90
51655;DHT22;37732;53.106;7.030;2023-02-28T05:43:25;3.40;99.90
51655;DHT22;37732;53.106;7.030;2023-02-28T05:45:51;3.40;99.90
51655;DHT22;37732;53.106;7.030;2023-02-28T05:48:18;3.40;99.90
51655;DHT22;37732;53.106;7.030;2023-02-28T05:50:44;3.30;99.90
51655;DHT22;37732;53.106;7.030;2023-02-28T05:53:11;3.30;99.90
51655;DHT22;37732;53.106;7.030;2023-02-28T05:55:37;3.50;99.90
51655;DHT22;37732;53.106;7.030;2023-02-28T05:58:04;3.30;99.90
51655;DHT22;37732;53.106;7.030;2023-02-28T06:00:30;3.30;99.90
51655;DHT22;37732;53.106;7.030;2023-02-28T06:02:56;3.30;99.90
51655;DHT22;37732;53.106;7.030;2023-02-28T06:05:23;3.70;99.90
51655;DHT22;37732;53.106;7.030;2023-02-28T06:07:51;3.30;99.90
51655;DHT22;37732;53.106;7.030;2023-02-28T06:10:16;3.30;99.90
51655;DHT22;37732;53.106;7.030;2023-02-28T06:12:42;3.30;99.90
51655;DHT22;37732;53.106;7.030;2023-02-28T06:15:12;3.30;99.90
51655;DHT22;37732;53.106;7.030;2023-02-28T06:17:38;3.40;99.90
51655;DHT22;37732;53.106;7.030;2023-02-28T06:20:05;3.30;99.90
51655;DHT22;37732;53.106;7.030;2023-02-28T06:22:33;3.30;99.90
51655;DHT22;37732;53.106;7.030;2023-02-28T06:24:58;3.40;99.90
51655;DHT22;37732;53.106;7.030;2023-02-28T06:27:24;3.30;99.90
51655;DHT22;37732;53.106;7.030;2023-02-28T06:29:54;3.30;99.90
51655;DHT22;37732;53.106;7.030;2023-02-28T06:32:21;3.30;99.90
51655;DHT22;37732;53.106;7.030;2023-02-28T06:34:47;3.30;99.90
51655;DHT22;37732;53.106;7.030;2023-02-28T06:37:13;3.30;99.90
51655;DHT22;37732;53.106;7.030;2023-02-28T06:39:39;3.30;99.90
51655;DHT22;37732;53.106;7.030;2023-02-28T06:42:07;3.40;99.90
51655;DHT22;37732;53.106;7.030;2023-02-28T06:44:32;3.40;99.90
51655;DHT22;37732;53.106;7.030;2023-02-28T06:47:04;3.40;99.90
51655;DHT22;37732;53.106;7.030;2023-02-28T06:49:32;3.40;99.90
51655;DHT22;37732;53.106;7.030;2023-02-28T06:51:57;3.40;99.90
51655;DHT22;37732;53.106;7.030;2023-02-28T06:54:23;3.50;99.90
51655;DHT22;37732;53.106;7.030;2023-02-28T06:56:50;3.50;99.90
51655;DHT22;37732;53.106;7.030;2023-02-28T06:59:16;3.50;99.90
51655;DHT22;37732;53.106;7.030;2023-02-28T07:01:42;3.60;99.90
51655;DHT22;37732;53.106;7.030;2023-02-28T07:04:08;3.70;99.90
51655;DHT22;37732;53.106;7.030;2023-02-28T07:06:35;3.80;99.90
51655;DHT22;37732;53.106;7.030;2023-02-28T07:09:01;3.80;99.90
51655;DHT22;37732;53.106;7.030;2023-02-28T07:11:27;3.80;99.90
51655;DHT22;37732;53.106;7.030;2023-02-28T07:13:55;3.80;99.90
51655;DHT22;37732;53.106;7.030;2023-02-28T07:16:23;3.80;99.90
51655;DHT22;37732;53.106;7.030;2023-02-28T07:18:49;3.90;99.90
51655;DHT22;37732;53.106;7.030;2023-02-28T07:21:15;3.90;99.90
51655;DHT22;37732;53.106;7.030;2023-02-28T07:23:42;3.90;99.90
51655;DHT22;37732;53.106;7.030;2023-02-28T07:26:15;4.00;99.90
51655;DHT22;37732;53.106;7.030;2023-02-28T07:28:41;4.00;99.90
51655;DHT22;37732;53.106;7.030;2023-02-28T07:31:08;4.10;99.90
51655;DHT22;37732;53.106;7.030;2023-02-28T07:33:34;4.10;99.90
51655;DHT22;37732;53.106;7.030;2023-02-28T07:36:09;4.20;99.90
51655;DHT22;37732;53.106;7.030;2023-02-28T07:38:42;4.20;99.90
51655;DHT22;37732;53.106;7.030;2023-02-28T07:41:08;4.20;99.90
51655;DHT22;37732;53.106;7.030;2023-02-28T07:43:35;4.30;99.90
51655;DHT22;37732;53.106;7.030;2023-02-28T07:46:08;4.30;99.90
51655;DHT22;37732;53.106;7.030;2023-02-28T07:48:34;4.30;99.90
51655;DHT22;37732;53.106;7.030;2023-02-28T07:51:00;4.30;99.90
51655;DHT22;37732;53.106;7.030;2023-02-28T07:53:27;4.40;99.90
51655;DHT22;37732;53.106;7.030;2023-02-28T07:56:00;4.30;99.90
51655;DHT22;37732;53.106;7.030;2023-02-28T07:58:29;4.40;99.90
51655;DHT22;37732;53.106;7.030;2023-02-28T08:00:55;4.40;99.90
51655;DHT22;37732;53.106;7.030;2023-02-28T08:03:23;4.40;99.90
51655;DHT22;37732;53.106;7.030;2023-02-28T08:05:49;4.40;99.90
51655;DHT22;37732;53.106;7.030;2023-02-28T08:08:16;4.40;99.90
51655;DHT22;37732;53.106;7.030;2023-02-28T08:10:45;4.40;99.90
51655;DHT22;37732;53.106;7.030;2023-02-28T08:13:10;4.50;99.90
51655;DHT22;37732;53.106;7.030;2023-02-28T08:15:36;4.50;99.90
51655;DHT22;37732;53.106;7.030;2023-02-28T08:18:02;4.60;99.90
51655;DHT22;37732;53.106;7.030;2023-02-28T08:20:28;4.50;99.90
51655;DHT22;37732;53.106;7.030;2023-02-28T08:22:55;4.60;99.90
51655;DHT22;37732;53.106;7.030;2023-02-28T08:25:21;4.60;99.90
51655;DHT22;37732;53.106;7.030;2023-02-28T08:27:47;4.70;99.90
51655;DHT22;37732;53.106;7.030;2023-02-28T08:30:13;4.70;99.90
51655;DHT22;37732;53.106;7.030;2023-02-28T08:32:41;4.80;99.90
51655;DHT22;37732;53.106;7.030;2023-02-28T08:35:07;4.90;99.90
51655;DHT22;37732;53.106;7.030;2023-02-28T08:37:34;5.00;99.90
51655;DHT22;37732;53.106;7.030;2023-02-28T08:40:02;5.10;99.90
51655;DHT22;37732;53.106;7.030;2023-02-28T08:42:29;5.20;99.90
51655;DHT22;37732;53.106;7.030;2023-02-28T08:44:56;5.40;99.90
51655;DHT22;37732;53.106;7.030;2023-02-28T08:47:22;5.60;99.90
51655;DHT22;37732;53.106;7.030;2023-02-28T08:49:48;5.90;99.90
51655;DHT22;37732;53.106;7.030;2023-02-28T08:52:14;6.10;99.90
51655;DHT22;37732;53.106;7.030;2023-02-28T08:54:40;6.40;99.90
51655;DHT22;37732;53.106;7.030;2023-02-28T08:57:07;6.50;99.90
51655;DHT22;37732;53.106;7.030;2023-02-28T08:59:33;6.60;99.90
51655;DHT22;37732;53.106;7.030;2023-02-28T09:01:59;6.70;99.90
51655;DHT22;37732;53.106;7.030;2023-02-28T09:04:24;6.80;99.90
51655;DHT22;37732;53.106;7.030;2023-02-28T09:06:50;6.70;99.90
51655;DHT22;37732;53.106;7.030;2023-02-28T09:09:16;6.70;99.90
51655;DHT22;37732;53.106;7.030;2023-02-28T09:11:43;6.70;99.90
51655;DHT22;37732;53.106;7.030;2023-02-28T09:14:09;6.70;99.90
51655;DHT22;37732;53.106;7.030;2023-02-28T09:16:34;6.60;99.90
51655;DHT22;37732;53.106;7.030;2023-02-28T09:19:02;6.50;99.90
51655;DHT22;37732;53.106;7.030;2023-02-28T09:21:29;6.40;99.90
51655;DHT22;37732;53.106;7.030;2023-02-28T09:23:55;6.40;99.90
51655;DHT22;37732;53.106;7.030;2023-02-28T09:26:23;6.50;99.90
51655;DHT22;37732;53.106;7.030;2023-02-28T09:28:51;6.60;99.90
51655;DHT22;37732;53.106;7.030;2023-02-28T09:31:23;6.70;99.90
51655;DHT22;37732;53.106;7.030;2023-02-28T09:33:51;6.80;99.90
51655;DHT22;37732;53.106;7.030;2023-02-28T09:36:19;6.80;99.90
51655;DHT22;37732;53.106;7.030;2023-02-28T09:38:45;6.80;99.90
51655;DHT22;37732;53.106;7.030;2023-02-28T09:41:22;6.90;99.90
51655;DHT22;37732;53.106;7.030;2023-02-28T09:44:00;6.80;99.90
51655;DHT22;37732;53.106;7.030;2023-02-28T09:46:44;6.80;99.90
51655;DHT22;37732;53.106;7.030;2023-02-28T09:49:18;6.90;99.90
51655;DHT22;37732;53.106;7.030;2023-02-28T09:54:23;7.00;99.90
51655;DHT22;37732;53.106;7.030;2023-02-28T09:57:00;7.00;99.90
51655;DHT22;37732;53.106;7.030;2023-02-28T10:05:05;7.50;99.90
51655;DHT22;37732;53.106;7.030;2023-02-28T10:10:27;7.30;99.90
51655;DHT22;37732;53.106;7.030;2023-02-28T10:12:54;7.20;99.90
51655;DHT22;37732;53.106;7.030;2023-02-28T10:15:23;7.10;99.90
51655;DHT22;37732;53.106;7.030;2023-02-28T10:17:56;7.00;99.90
51655;DHT22;37732;53.106;7.030;2023-02-28T10:20:24;7.00;99.90
51655;DHT22;37732;53.106;7.030;2023-02-28T10:26:17;7.30;99.90
51655;DHT22;37732;53.106;7.030;2023-02-28T10:28:44;7.30;99.90
51655;DHT22;37732;53.106;7.030;2023-02-28T10:31:19;7.20;99.90
51655;DHT22;37732;53.106;7.030;2023-02-28T10:33:47;7.30;99.90
51655;DHT22;37732;53.106;7.030;2023-02-28T10:36:15;7.40;99.90
51655;DHT22;37732;53.106;7.030;2023-02-28T10:38:43;7.60;99.90
51655;DHT22;37732;53.106;7.030;2023-02-28T10:41:15;7.80;99.90
51655;DHT22;37732;53.106;7.030;2023-02-28T10:43:43;7.90;99.90
51655;DHT22;37732;53.106;7.030;2023-02-28T10:46:15;8.10;99.90
51655;DHT22;37732;53.106;7.030;2023-02-28T10:49:19;8.10;99.90
51655;DHT22;37732;53.106;7.030;2023-02-28T10:51:51;8.00;99.90
51655;DHT22;37732;53.106;7.030;2023-02-28T10:59:34;8.00;99.90
51655;DHT22;37732;53.106;7.030;2023-02-28T11:02:00;8.20;99.90
51655;DHT22;37732;53.106;7.030;2023-02-28T11:07:22;8.10;99.90
51655;DHT22;37732;53.106;7.030;2023-02-28T12:58:13;10.20;99.90
51655;DHT22;37732;53.106;7.030;2023-02-28T13:09:14;10.20;99.90
51655;DHT22;37732;53.106;7.030;2023-02-28T13:11:47;10.20;99.90
51655;DHT22;37732;53.106;7.030;2023-02-28T13:14:22;10.20;99.90
51655;DHT22;37732;53.106;7.030;2023-02-28T13:19:18;10.10;99.90
51655;DHT22;37732;53.106;7.030;2023-02-28T13:21:47;10.00;99.90
51655;DHT22;37732;53.106;7.030;2023-02-28T13:29:42;9.90;99.90
51655;DHT22;37732;53.106;7.030;2023-02-28T13:39:53;10.00;99.90
51655;DHT22;37732;53.106;7.030;2023-02-28T13:47:44;9.90;99.90
51655;DHT22;37732;53.106;7.030;2023-02-28T14:06:57;10.00;96.80
51655;DHT22;37732;53.106;7.030;2023-02-28T14:09:29;9.80;99.50
51655;DHT22;37732;53.106;7.030;2023-02-28T14:11:56;9.60;99.60
51655;DHT22;37732;53.106;7.030;2023-02-28T14:17:07;9.40;99.90
51655;DHT22;37732;53.106;7.030;2023-02-28T14:19:39;9.40;99.90
51655;DHT22;37732;53.106;7.030;2023-02-28T14:30:43;9.20;99.90
51655;DHT22;37732;53.106;7.030;2023-02-28T14:38:30;9.10;99.90
51655;DHT22;37732;53.106;7.030;2023-02-28T14:40:58;9.10;99.90
51655;DHT22;37732;53.106;7.030;2023-02-28T14:43:28;9.10;99.90
51655;DHT22;37732;53.106;7.030;2023-02-28T14:45:59;9.10;99.90
51655;DHT22;37732;53.106;7.030;2023-02-28T14:48:26;9.10;99.90
51655;DHT22;37732;53.106;7.030;2023-02-28T14:50:58;9.10;99.90
51655;DHT22;37732;53.106;7.030;2023-02-28T14:53:27;9.00;99.90
51655;DHT22;37732;53.106;7.030;2023-02-28T14:55:54;8.90;99.90
51655;DHT22;37732;53.106;7.030;2023-02-28T14:58:26;8.90;99.90
51655;DHT22;37732;53.106;7.030;2023-02-28T15:00:54;8.80;99.90
51655;DHT22;37732;53.106;7.030;2023-02-28T15:03:30;8.60;99.90
51655;DHT22;37732;53.106;7.030;2023-02-28T15:05:59;8.70;99.90
51655;DHT22;37732;53.106;7.030;2023-02-28T15:08:26;8.60;99.90
51655;DHT22;37732;53.106;7.030;2023-02-28T15:11:16;8.50;99.90
51655;DHT22;37732;53.106;7.030;2023-02-28T15:13:47;8.50;99.90
51655;DHT22;37732;53.106;7.030;2023-02-28T15:16:22;8.40;99.90
51655;DHT22;37732;53.106;7.030;2023-02-28T15:19:00;8.50;99.40
51655;DHT22;37732;53.106;7.030;2023-02-28T15:21:35;8.40;96.20
51655;DHT22;37732;53.106;7.030;2023-02-28T15:24:12;8.40;97.80
51655;DHT22;37732;53.106;7.030;2023-02-28T15:26:42;8.40;99.20
51655;DHT22;37732;53.106;7.030;2023-02-28T15:29:18;8.40;99.60
51655;DHT22;37732;53.106;7.030;2023-02-28T15:34:34;8.40;99.90
51655;DHT22;37732;53.106;7.030;2023-02-28T15:37:00;8.20;99.90
51655;DHT22;37732;53.106;7.030;2023-02-28T15:39:28;8.10;99.90
51655;DHT22;37732;53.106;7.030;2023-02-28T15:42:18;8.10;99.90
51655;DHT22;37732;53.106;7.030;2023-02-28T15:44:43;8.00;99.90
51655;DHT22;37732;53.106;7.030;2023-02-28T15:47:19;8.00;99.90
51655;DHT22;37732;53.106;7.030;2023-02-28T15:49:58;8.00;99.90
51655;DHT22;37732;53.106;7.030;2023-02-28T15:52:37;7.90;99.90
51655;DHT22;37732;53.106;7.030;2023-02-28T15:55:17;7.90;99.90
51655;DHT22;37732;53.106;7.030;2023-02-28T15:57:48;7.90;99.90
51655;DHT22;37732;53.106;7.030;2023-02-28T16:00:19;7.80;99.90
51655;DHT22;37732;53.106;7.030;2023-02-28T16:02:45;7.80;99.90
51655;DHT22;37732;53.106;7.030;2023-02-28T16:07:41;7.80;99.90
51655;DHT22;37732;53.106;7.030;2023-02-28T16:10:10;7.70;99.90
51655;DHT22;37732;53.106;7.030;2023-02-28T16:12:38;7.70;99.90
51655;DHT22;37732;53.106;7.030;2023-02-28T16:17:46;7.60;99.90
51655;DHT22;37732;53.106;7.030;2023-02-28T16:22:40;7.40;99.90
51655;DHT22;37732;53.106;7.030;2023-02-28T16:25:17;7.30;99.90
51655;DHT22;37732;53.106;7.030;2023-02-28T16:27:46;7.30;99.90
51655;DHT22;37732;53.106;7.030;2023-02-28T16:30:21;7.10;99.90
51655;DHT22;37732;53.106;7.030;2023-02-28T16:32:47;7.10;99.90
51655;DHT22;37732;53.106;7.030;2023-02-28T16:35:14;6.90;99.90
51655;DHT22;37732;53.106;7.030;2023-02-28T16:37:40;6.90;99.90
51655;DHT22;37732;53.106;7.030;2023-02-28T16:40:14;6.80;99.90
51655;DHT22;37732;53.106;7.030;2023-02-28T16:42:40;6.70;99.90
51655;DHT22;37732;53.106;7.030;2023-02-28T16:45:15;6.60;99.90
51655;DHT22;37732;53.106;7.030;2023-02-28T16:47:42;6.60;99.90
51655;DHT22;37732;53.106;7.030;2023-02-28T16:50:22;6.60;99.90
51655;DHT22;37732;53.106;7.030;2023-02-28T16:52:49;6.60;99.90
51655;DHT22;37732;53.106;7.030;2023-02-28T16:55:15;6.60;99.90
51655;DHT22;37732;53.106;7.030;2023-02-28T16:57:41;6.50;99.90
51655;DHT22;37732;53.106;7.030;2023-02-28T17:00:12;6.50;99.90
51655;DHT22;37732;53.106;7.030;2023-02-28T17:02:38;6.40;99.90
51655;DHT22;37732;53.106;7.030;2023-02-28T17:05:04;6.20;99.90
51655;DHT22;37732;53.106;7.030;2023-02-28T17:07:30;6.20;99.90
51655;DHT22;37732;53.106;7.030;2023-02-28T17:09:56;6.10;99.90
51655;DHT22;37732;53.106;7.030;2023-02-28T17:12:21;6.00;99.90
51655;DHT22;37732;53.106;7.030;2023-02-28T17:14:47;5.90;99.90
51655;DHT22;37732;53.106;7.030;2023-02-28T17:17:18;5.90;99.90
51655;DHT22;37732;53.106;7.030;2023-02-28T17:19:45;5.80;99.90
51655;DHT22;37732;53.106;7.030;2023-02-28T17:22:10;5.70;99.90
51655;DHT22;37732;53.106;7.030;2023-02-28T17:24:36;5.70;99.90
51655;DHT22;37732;53.106;7.030;2023-02-28T17:27:02;5.70;99.90
51655;DHT22;37732;53.106;7.030;2023-02-28T17:29:28;5.50;99.90
51655;DHT22;37732;53.106;7.030;2023-02-28T17:31:54;5.40;99.90
51655;DHT22;37732;53.106;7.030;2023-02-28T17:34:20;5.40;99.90
51655;DHT22;37732;53.106;7.030;2023-02-28T17:36:49;5.30;99.90
51655;DHT22;37732;53.106;7.030;2023-02-28T17:39:17;5.30;99.90
51655;DHT22;37732;53.106;7.030;2023-02-28T17:41:52;5.50;99.90
51655;DHT22;37732;53.106;7.030;2023-02-28T17:44:21;5.10;99.90
51655;DHT22;37732;53.106;7.030;2023-02-28T17:46:47;5.00;99.90
51655;DHT22;37732;53.106;7.030;2023-02-28T17:49:13;4.90;99.90
51655;DHT22;37732;53.106;7.030;2023-02-28T17:51:38;4.80;99.90
51655;DHT22;37732;53.106;7.030;2023-02-28T17:54:04;5.40;99.90
51655;DHT22;37732;53.106;7.030;2023-02-28T17:56:30;4.70;99.90
51655;DHT22;37732;53.106;7.030;2023-02-28T17:58:56;4.60;99.90
51655;DHT22;37732;53.106;7.030;2023-02-28T18:01:23;4.50;99.90
51655;DHT22;37732;53.106;7.030;2023-02-28T18:03:52;4.50;99.90
51655;DHT22;37732;53.106;7.030;2023-02-28T18:06:28;4.50;99.90
51655;DHT22;37732;53.106;7.030;2023-02-28T18:08:56;4.40;99.90
51655;DHT22;37732;53.106;7.030;2023-02-28T18:11:22;4.30;99.90
51655;DHT22;37732;53.106;7.030;2023-02-28T18:13:53;4.30;99.90
51655;DHT22;37732;53.106;7.030;2023-02-28T18:16:21;4.30;99.90
51655;DHT22;37732;53.106;7.030;2023-02-28T18:18:48;4.20;99.90
51655;DHT22;37732;53.106;7.030;2023-02-28T18:21:15;4.10;99.90
51655;DHT22;37732;53.106;7.030;2023-02-28T18:23:42;4.10;99.90
51655;DHT22;37732;53.106;7.030;2023-02-28T18:26:17;4.10;99.90
51655;DHT22;37732;53.106;7.030;2023-02-28T18:28:43;4.00;99.90
51655;DHT22;37732;53.106;7.030;2023-02-28T18:31:11;4.00;99.90
51655;DHT22;37732;53.106;7.030;2023-02-28T18:33:38;4.00;99.90
51655;DHT22;37732;53.106;7.030;2023-02-28T18:36:05;3.90;99.90
51655;DHT22;37732;53.106;7.030;2023-02-28T18:38:31;3.90;99.90
51655;DHT22;37732;53.106;7.030;2023-02-28T18:41:02;3.70;99.90
51655;DHT22;37732;53.106;7.030;2023-02-28T18:43:31;3.70;99.90
51655;DHT22;37732;53.106;7.030;2023-02-28T18:45:57;3.60;99.90
51655;DHT22;37732;53.106;7.030;2023-02-28T18:48:27;3.60;99.90
51655;DHT22;37732;53.106;7.030;2023-02-28T18:50:53;3.60;99.90
51655;DHT22;37732;53.106;7.030;2023-02-28T18:53:18;3.50;99.90
51655;DHT22;37732;53.106;7.030;2023-02-28T18:55:44;3.50;99.90
51655;DHT22;37732;53.106;7.030;2023-02-28T18:58:10;3.70;99.90
51655;DHT22;37732;53.106;7.030;2023-02-28T19:00:36;3.70;99.90
51655;DHT22;37732;53.106;7.030;2023-02-28T19:03:02;3.40;99.90
51655;DHT22;37732;53.106;7.030;2023-02-28T19:05:29;3.60;99.90
51655;DHT22;37732;53.106;7.030;2023-02-28T19:07:59;3.30;99.90
51655;DHT22;37732;53.106;7.030;2023-02-28T19:10:25;3.30;99.90
51655;DHT22;37732;53.106;7.030;2023-02-28T19:12:51;3.20;99.90
51655;DHT22;37732;53.106;7.030;2023-02-28T19:15:16;3.10;99.90
51655;DHT22;37732;53.106;7.030;2023-02-28T19:17:42;3.30;99.90
51655;DHT22;37732;53.106;7.030;2023-02-28T19:20:09;3.10;99.90
51655;DHT22;37732;53.106;7.030;2023-02-28T19:22:35;3.10;99.90
51655;DHT22;37732;53.106;7.030;2023-02-28T19:25:03;3.00;99.90
51655;DHT22;37732;53.106;7.030;2023-02-28T19:27:28;3.00;99.90
51655;DHT22;37732;53.106;7.030;2023-02-28T19:29:54;3.10;99.90
51655;DHT22;37732;53.106;7.030;2023-02-28T19:32:24;2.90;99.90
51655;DHT22;37732;53.106;7.030;2023-02-28T19:34:50;2.80;99.90
51655;DHT22;37732;53.106;7.030;2023-02-28T19:37:16;2.70;99.90
51655;DHT22;37732;53.106;7.030;2023-02-28T19:39:43;3.30;99.90
51655;DHT22;37732;53.106;7.030;2023-02-28T19:42:14;3.00;99.90
51655;DHT22;37732;53.106;7.030;2023-02-28T19:44:41;2.80;99.90
51655;DHT22;37732;53.106;7.030;2023-02-28T19:47:07;2.60;99.90
51655;DHT22;37732;53.106;7.030;2023-02-28T19:49:33;2.60;99.90
51655;DHT22;37732;53.106;7.030;2023-02-28T19:51:59;2.50;99.90
51655;DHT22;37732;53.106;7.030;2023-02-28T19:54:26;2.60;99.90
51655;DHT22;37732;53.106;7.030;2023-02-28T19:56:53;2.50;99.90